Time;durP1;ratioP1;P1;durP2;ratioP2;P2;SDS_P1;SDS_P2;PMS_P1;PMS_P2;Temp;Humidity;BMP_temperature;BMP_pressure;BME280_temperature;BME280_humidity;BME280_pressure;Samples;Min_cycle;Max_cycle;Signal;HPM_P1;HPM_P2
2022/07/27 00:00:31;;;;;;;10.20;1.25;;;14.70;99.90;;;;;;7394284;19;20018;-86
2022/07/27 00:02:57;;;;;;;4.63;1.05;;;14.70;99.90;;;;;;7392758;19;20042;-87
2022/07/27 00:05:23;;;;;;;4.78;1.30;;;14.70;99.90;;;;;;7393657;19;20042;-86
2022/07/27 00:07:49;;;;;;;8.82;1.30;;;14.70;99.90;;;;;;7392659;19;20007;-86
2022/07/27 00:10:15;;;;;;;7.05;1.25;;;14.60;99.90;;;;;;7393939;19;20022;-86
2022/07/27 00:12:41;;;;;;;4.97;1.45;;;14.60;99.90;;;;;;7391371;19;20071;-86
2022/07/27 00:15:08;;;;;;;5.82;1.13;;;14.60;99.90;;;;;;7393651;19;20022;-86
2022/07/27 00:17:34;;;;;;;7.30;1.00;;;14.60;99.90;;;;;;7392684;19;20014;-86
2022/07/27 00:20:04;;;;;;;5.85;1.55;;;14.50;99.90;;;;;;7391615;19;20110;-86
2022/07/27 00:22:30;;;;;;;10.20;1.52;;;14.40;99.90;;;;;;7394891;19;20074;-84
2022/07/27 00:24:55;;;;;;;7.40;1.30;;;14.40;99.90;;;;;;7388427;19;20031;-84
2022/07/27 00:27:21;;;;;;;6.10;1.48;;;14.40;99.90;;;;;;7395823;19;20043;-85
2022/07/27 00:29:48;;;;;;;8.60;1.30;;;14.30;99.90;;;;;;7394429;19;20523;-84
2022/07/27 00:32:14;;;;;;;10.50;1.50;;;14.10;99.90;;;;;;7394356;19;20090;-85
2022/07/27 00:34:40;;;;;;;8.18;1.45;;;14.10;99.90;;;;;;7390760;19;20594;-85
2022/07/27 00:37:06;;;;;;;6.50;1.60;;;14.20;99.90;;;;;;7393120;19;20340;-84
2022/07/27 00:39:31;;;;;;;9.48;1.33;;;14.20;99.90;;;;;;7392786;19;20014;-86
2022/07/27 00:41:57;;;;;;;4.75;1.20;;;14.20;99.90;;;;;;7390626;19;20018;-85
2022/07/27 00:44:25;;;;;;;7.78;1.20;;;14.20;99.90;;;;;;7390786;19;20021;-85
2022/07/27 00:46:51;;;;;;;6.97;1.35;;;14.50;99.90;;;;;;7395178;19;20498;-85
2022/07/27 00:49:17;;;;;;;7.50;1.17;;;14.60;99.90;;;;;;7391709;19;20010;-85
2022/07/27 00:51:44;;;;;;;8.45;1.75;;;14.60;99.90;;;;;;7392637;19;20025;-84
2022/07/27 00:54:09;;;;;;;10.63;1.67;;;14.70;99.90;;;;;;7391759;19;20038;-86
2022/07/27 00:56:35;;;;;;;7.15;1.40;;;14.60;99.90;;;;;;7394971;19;20046;-85
2022/07/27 00:59:01;;;;;;;6.57;1.13;;;14.50;99.90;;;;;;7393029;19;20011;-85
2022/07/27 01:01:30;;;;;;;7.43;1.67;;;14.50;99.90;;;;;;7393692;19;20015;-86
2022/07/27 01:03:56;;;;;;;5.20;1.27;;;14.50;99.90;;;;;;7392353;19;20030;-85
2022/07/27 01:06:22;;;;;;;6.47;1.40;;;14.50;99.90;;;;;;7391385;19;20087;-85
2022/07/27 01:08:48;;;;;;;6.43;1.67;;;14.60;99.90;;;;;;7395651;19;20011;-85
2022/07/27 01:11:14;;;;;;;7.88;1.55;;;15.10;99.90;;;;;;7392706;19;20019;-85
2022/07/27 01:13:42;;;;;;;6.93;1.50;;;15.00;99.90;;;;;;7394298;19;20014;-85
2022/07/27 01:16:08;;;;;;;9.23;1.70;;;15.00;99.90;;;;;;7391501;19;20419;-85
2022/07/27 01:18:38;;;;;;;9.10;1.45;;;14.90;99.90;;;;;;7389845;19;20463;-85
2022/07/27 01:21:07;;;;;;;6.38;1.35;;;14.90;99.90;;;;;;7387109;19;20014;-85
2022/07/27 01:23:34;;;;;;;7.32;1.38;;;14.80;99.90;;;;;;7396124;19;20034;-84
2022/07/27 01:26:04;;;;;;;5.70;1.30;;;14.70;99.90;;;;;;7413151;19;20018;-81
2022/07/27 01:28:33;;;;;;;5.68;1.42;;;14.60;99.90;;;;;;7407434;19;20025;-85
2022/07/27 01:31:00;;;;;;;7.95;1.40;;;14.50;99.90;;;;;;7399015;19;20353;-86
2022/07/27 01:33:26;;;;;;;7.32;1.33;;;14.70;99.90;;;;;;7398377;19;20014;-86
2022/07/27 01:35:54;;;;;;;12.40;1.65;;;14.60;99.90;;;;;;7399743;19;20357;-86
2022/07/27 01:38:20;;;;;;;8.20;1.70;;;14.60;99.90;;;;;;7399364;19;20100;-85
2022/07/27 01:40:47;;;;;;;7.70;1.80;;;14.40;99.90;;;;;;7395192;19;20014;-85
2022/07/27 01:43:13;;;;;;;9.38;1.60;;;14.30;99.90;;;;;;7398967;19;20022;-85
2022/07/27 01:45:39;;;;;;;7.35;1.80;;;14.20;99.90;;;;;;7398061;19;20417;-85
2022/07/27 01:48:05;;;;;;;8.60;1.30;;;14.10;99.90;;;;;;7400507;19;20487;-85
2022/07/27 01:50:31;;;;;;;7.45;1.15;;;14.10;99.90;;;;;;7398515;19;20022;-85
2022/07/27 01:52:57;;;;;;;5.93;1.40;;;14.10;99.90;;;;;;7399746;19;20661;-85
2022/07/27 01:55:23;;;;;;;8.85;1.38;;;14.10;99.90;;;;;;7398892;19;20022;-85
2022/07/27 01:57:49;;;;;;;7.85;1.30;;;14.00;99.90;;;;;;7396980;19;20364;-85
2022/07/27 02:00:15;;;;;;;6.68;1.30;;;14.20;99.90;;;;;;7397729;19;20018;-85
2022/07/27 02:02:41;;;;;;;3.10;1.20;;;14.20;99.90;;;;;;7398945;19;20015;-85
2022/07/27 02:05:10;;;;;;;11.77;1.90;;;14.10;99.90;;;;;;7395431;19;20018;-85
2022/07/27 02:07:38;;;;;;;10.52;1.70;;;14.10;99.90;;;;;;7398879;19;20038;-85
2022/07/27 02:10:05;;;;;;;8.40;1.60;;;14.00;99.90;;;;;;7398484;19;20014;-85
2022/07/27 02:12:37;;;;;;;5.22;1.58;;;14.00;99.90;;;;;;7396948;19;20025;-85
2022/07/27 02:15:18;;;;;;;7.45;1.60;;;13.90;99.90;;;;;;7396483;19;20026;-85
2022/07/27 02:17:45;;;;;;;6.45;1.35;;;14.00;99.90;;;;;;7395217;19;20085;-85
2022/07/27 02:20:13;;;;;;;7.15;1.60;;;13.90;99.90;;;;;;7393403;19;20018;-85
2022/07/27 02:22:39;;;;;;;8.40;1.50;;;13.80;99.90;;;;;;7395742;19;20106;-86
2022/07/27 02:25:06;;;;;;;8.77;1.85;;;13.70;99.90;;;;;;7395054;19;20019;-85
2022/07/27 02:27:32;;;;;;;11.80;1.50;;;13.70;99.90;;;;;;7398763;19;20022;-85
2022/07/27 02:29:58;;;;;;;9.85;2.22;;;13.60;99.90;;;;;;7395712;19;20074;-85
2022/07/27 02:32:24;;;;;;;5.60;1.20;;;13.60;99.90;;;;;;7395699;19;20013;-85
2022/07/27 02:34:50;;;;;;;7.03;1.63;;;13.60;99.90;;;;;;7394303;19;20074;-85
2022/07/27 02:37:16;;;;;;;8.75;1.70;;;13.50;99.90;;;;;;7396568;19;20022;-85
2022/07/27 02:39:42;;;;;;;7.60;1.40;;;13.50;99.90;;;;;;7396232;19;20046;-86
2022/07/27 02:42:08;;;;;;;5.82;1.52;;;13.50;99.90;;;;;;7398161;19;20018;-85
2022/07/27 02:44:34;;;;;;;5.43;1.60;;;13.40;99.90;;;;;;7395818;19;20015;-85
2022/07/27 02:47:00;;;;;;;4.82;1.20;;;13.50;99.90;;;;;;7397724;19;20042;-85
2022/07/27 02:49:28;;;;;;;7.57;1.65;;;13.50;99.90;;;;;;7396661;19;20014;-85
2022/07/27 02:51:54;;;;;;;8.80;1.75;;;13.50;99.90;;;;;;7396283;19;20022;-86
2022/07/27 02:54:24;;;;;;;7.78;1.45;;;13.50;99.90;;;;;;7394079;19;20015;-85
2022/07/27 02:56:51;;;;;;;8.80;1.55;;;13.60;99.90;;;;;;7395652;19;20058;-85
2022/07/27 02:59:18;;;;;;;6.47;1.27;;;13.50;99.90;;;;;;7396373;19;20014;-85
2022/07/27 03:01:44;;;;;;;8.18;1.67;;;13.50;99.90;;;;;;7396847;19;20026;-84
2022/07/27 03:04:11;;;;;;;5.72;1.10;;;13.50;99.90;;;;;;7394554;19;20014;-86
2022/07/27 03:06:36;;;;;;;7.50;1.70;;;13.50;99.90;;;;;;7394537;19;20475;-85
2022/07/27 03:09:03;;;;;;;8.50;1.83;;;13.50;99.90;;;;;;7397735;19;20022;-84
2022/07/27 03:11:29;;;;;;;6.03;1.67;;;13.50;99.90;;;;;;7393243;19;20029;-85
2022/07/27 03:13:55;;;;;;;6.65;1.58;;;13.50;99.90;;;;;;7398780;19;20015;-84
2022/07/27 03:16:21;;;;;;;6.30;1.58;;;13.50;99.90;;;;;;7398860;19;20037;-85
2022/07/27 03:18:47;;;;;;;10.50;1.60;;;13.50;99.90;;;;;;7397973;19;20352;-81
2022/07/27 03:21:13;;;;;;;5.72;1.50;;;13.50;99.90;;;;;;7408825;19;20015;-84
2022/07/27 03:23:39;;;;;;;8.55;1.80;;;13.50;99.90;;;;;;7394837;19;20010;-85
2022/07/27 03:26:05;;;;;;;7.78;1.55;;;13.50;99.90;;;;;;7391702;19;20499;-85
2022/07/27 03:28:31;;;;;;;5.05;1.42;;;13.50;99.90;;;;;;7394881;19;20010;-85
2022/07/27 03:30:57;;;;;;;8.77;2.03;;;13.50;99.90;;;;;;7394845;19;20503;-86
2022/07/27 03:33:24;;;;;;;6.35;1.88;;;13.40;99.90;;;;;;7396027;19;20035;-85
2022/07/27 03:35:50;;;;;;;11.13;2.33;;;13.40;99.90;;;;;;7396214;19;20018;-84
2022/07/27 03:38:16;;;;;;;7.53;1.83;;;13.30;99.90;;;;;;7395645;19;20015;-85
2022/07/27 03:40:44;;;;;;;8.82;2.00;;;13.20;99.90;;;;;;7393472;19;20043;-84
2022/07/27 03:43:10;;;;;;;10.32;2.25;;;13.20;99.90;;;;;;7391781;19;20507;-85
2022/07/27 03:45:36;;;;;;;7.80;2.00;;;13.10;99.90;;;;;;7392248;19;20026;-85
2022/07/27 03:48:02;;;;;;;4.65;1.40;;;13.10;99.90;;;;;;7391989;19;20018;-84
2022/07/27 03:50:28;;;;;;;6.10;1.90;;;13.00;99.90;;;;;;7395276;19;20026;-85
2022/07/27 03:52:55;;;;;;;6.45;1.95;;;13.10;99.90;;;;;;7395118;19;20015;-86
2022/07/27 03:55:21;;;;;;;11.60;1.70;;;13.10;99.90;;;;;;7389573;19;20019;-85
2022/07/27 03:57:46;;;;;;;6.95;1.73;;;13.10;99.90;;;;;;7396414;19;20014;-85
2022/07/27 04:00:14;;;;;;;5.50;1.60;;;13.20;99.90;;;;;;7391734;19;20018;-86
2022/07/27 04:02:40;;;;;;;6.30;1.98;;;13.10;99.90;;;;;;7392749;19;20025;-85
2022/07/27 04:05:06;;;;;;;7.00;1.88;;;13.10;99.90;;;;;;7390632;19;20019;-86
2022/07/27 04:07:32;;;;;;;9.23;2.00;;;13.10;99.90;;;;;;7396232;19;20043;-85
2022/07/27 04:09:58;;;;;;;8.48;1.73;;;13.10;99.90;;;;;;7393334;19;20373;-85
2022/07/27 04:12:24;;;;;;;7.45;1.98;;;13.10;99.90;;;;;;7394896;19;20023;-85
2022/07/27 04:14:50;;;;;;;6.82;1.60;;;13.10;99.90;;;;;;7394800;19;20011;-85
2022/07/27 04:17:16;;;;;;;6.90;2.05;;;13.10;99.90;;;;;;7390831;19;20018;-85
2022/07/27 04:19:42;;;;;;;6.95;1.90;;;13.10;99.90;;;;;;7392174;19;20025;-85
2022/07/27 04:22:08;;;;;;;7.47;2.00;;;13.10;99.90;;;;;;7395338;19;20014;-85
2022/07/27 04:24:34;;;;;;;8.23;1.88;;;13.10;99.90;;;;;;7390750;19;20023;-86
2022/07/27 04:26:59;;;;;;;9.25;1.85;;;13.10;99.90;;;;;;7393615;19;20015;-85
2022/07/27 04:29:25;;;;;;;6.05;1.73;;;13.10;99.90;;;;;;7392403;19;20046;-85
2022/07/27 04:31:51;;;;;;;5.32;1.73;;;13.20;99.90;;;;;;7391539;19;20050;-85
2022/07/27 04:34:19;;;;;;;8.15;1.77;;;13.20;99.90;;;;;;7393453;19;20039;-85
2022/07/27 04:36:45;;;;;;;5.47;1.65;;;13.20;99.90;;;;;;7392822;19;20381;-85
2022/07/27 04:39:11;;;;;;;6.05;1.80;;;13.20;99.90;;;;;;7393744;19;20492;-85
2022/07/27 04:41:37;;;;;;;4.53;1.42;;;13.30;99.90;;;;;;7393716;19;20014;-85
2022/07/27 04:44:03;;;;;;;7.50;1.60;;;13.40;99.90;;;;;;7388491;19;20021;-86
2022/07/27 04:46:29;;;;;;;5.75;1.52;;;13.40;99.90;;;;;;7391925;19;22540;-86
2022/07/27 04:48:55;;;;;;;8.57;1.85;;;13.40;99.90;;;;;;7391263;19;20022;-86
2022/07/27 04:51:20;;;;;;;4.68;1.50;;;13.50;99.90;;;;;;7393155;19;20025;-86
2022/07/27 04:53:47;;;;;;;5.82;1.95;;;13.40;99.90;;;;;;7391992;19;20049;-86
2022/07/27 04:56:12;;;;;;;4.30;1.77;;;13.40;99.90;;;;;;7389930;19;20342;-86
2022/07/27 04:58:38;;;;;;;6.95;1.83;;;13.40;99.90;;;;;;7399646;19;20503;-86
2022/07/27 05:01:04;;;;;;;6.45;2.10;;;13.40;99.90;;;;;;7395943;19;20048;-85
2022/07/27 05:03:34;;;;;;;5.45;1.85;;;13.40;99.90;;;;;;7400360;19;20033;-86
2022/07/27 05:05:59;;;;;;;4.80;1.60;;;13.40;99.90;;;;;;7399264;19;20025;-86
2022/07/27 05:08:25;;;;;;;5.25;1.35;;;13.50;99.90;;;;;;7399767;19;20475;-86
2022/07/27 05:10:51;;;;;;;5.78;1.75;;;13.70;99.90;;;;;;7400496;19;20040;-86
2022/07/27 05:13:17;;;;;;;5.43;1.50;;;13.90;99.90;;;;;;7404856;19;20038;-86
2022/07/27 05:15:43;;;;;;;8.80;1.80;;;14.00;99.90;;;;;;7424327;19;20021;-84
2022/07/27 05:18:09;;;;;;;6.60;1.42;;;14.10;99.90;;;;;;7401557;19;20463;-86
2022/07/27 05:20:35;;;;;;;6.13;1.73;;;14.30;99.90;;;;;;7397666;19;20011;-86
2022/07/27 05:23:01;;;;;;;5.53;1.50;;;14.40;99.90;;;;;;7399026;19;20018;-86
2022/07/27 05:25:27;;;;;;;7.93;1.85;;;14.40;99.90;;;;;;7397504;19;20015;-86
2022/07/27 05:27:53;;;;;;;8.80;1.85;;;14.50;99.90;;;;;;7400033;19;20070;-86
2022/07/27 05:30:20;;;;;;;6.90;1.63;;;14.50;99.90;;;;;;7399738;19;20037;-86
2022/07/27 05:32:46;;;;;;;4.03;1.63;;;14.40;99.90;;;;;;7400949;19;20010;-84
2022/07/27 05:35:13;;;;;;;8.55;2.05;;;14.50;99.90;;;;;;7401354;19;20408;-86
2022/07/27 05:37:39;;;;;;;5.25;1.70;;;14.50;99.90;;;;;;7399340;19;20031;-86
2022/07/27 05:40:07;;;;;;;6.25;1.70;;;14.50;99.90;;;;;;7400468;19;20053;-86
2022/07/27 05:42:33;;;;;;;7.88;1.90;;;14.50;99.90;;;;;;7400102;19;20015;-86
2022/07/27 05:44:59;;;;;;;6.72;1.70;;;14.50;99.90;;;;;;7398195;19;20019;-86
2022/07/27 05:47:25;;;;;;;7.40;1.77;;;14.50;99.90;;;;;;7398649;19;20525;-86
2022/07/27 05:49:50;;;;;;;7.32;1.63;;;14.40;99.90;;;;;;7400043;19;20019;-88
2022/07/27 05:52:16;;;;;;;5.00;1.60;;;14.40;99.90;;;;;;7399070;19;20015;-84
2022/07/27 05:54:43;;;;;;;10.15;2.17;;;14.40;99.90;;;;;;7395222;19;20100;-90
2022/07/27 05:57:09;;;;;;;7.05;1.35;;;14.40;99.90;;;;;;7400393;19;20043;-89
2022/07/27 05:59:35;;;;;;;6.78;1.40;;;14.50;99.90;;;;;;7396907;19;20019;-88
2022/07/27 06:02:02;;;;;;;7.40;1.52;;;14.50;99.90;;;;;;7390619;19;20101;-85
2022/07/27 06:04:28;;;;;;;7.97;2.00;;;14.50;99.90;;;;;;7399254;19;20041;-87
2022/07/27 06:09:39;;;;;;;7.07;1.88;;;14.80;99.90;;;;;;7400006;19;20033;-90
2022/07/27 06:12:05;;;;;;;7.65;2.10;;;15.20;99.90;;;;;;7398820;19;20468;-89
2022/07/27 06:14:31;;;;;;;6.18;1.70;;;15.40;99.90;;;;;;7399351;19;20015;-90
2022/07/27 06:16:57;;;;;;;9.35;1.60;;;15.60;99.90;;;;;;7400867;19;20010;-91
2022/07/27 06:19:23;;;;;;;8.48;1.83;;;15.90;99.90;;;;;;7399300;19;20022;-89
2022/07/27 06:21:49;;;;;;;8.05;1.67;;;16.00;99.90;;;;;;7392525;19;20019;-87
2022/07/27 06:24:16;;;;;;;5.40;1.50;;;16.10;99.90;;;;;;7392079;19;20014;-87
2022/07/27 06:26:43;;;;;;;6.00;1.70;;;16.50;99.90;;;;;;7397590;19;20519;-88
2022/07/27 06:29:09;;;;;;;9.50;1.52;;;17.00;99.90;;;;;;7396537;19;20014;-87
2022/07/27 06:31:34;;;;;;;4.90;1.40;;;17.30;99.90;;;;;;7397907;19;20022;-88
2022/07/27 06:34:01;;;;;;;5.85;1.48;;;18.00;99.90;;;;;;7397081;19;20006;-88
2022/07/27 06:36:27;;;;;;;7.57;1.55;;;18.40;99.90;;;;;;7393476;19;20010;-88
2022/07/27 06:38:53;;;;;;;4.97;1.30;;;18.60;99.90;;;;;;7391085;19;20036;-89
2022/07/27 06:41:19;;;;;;;4.05;0.98;;;18.80;99.90;;;;;;7395932;19;20364;-89
2022/07/27 06:43:45;;;;;;;5.32;1.17;;;19.30;99.90;;;;;;7397809;19;20015;-89
2022/07/27 06:46:12;;;;;;;4.65;1.15;;;19.60;99.90;;;;;;7398602;19;20018;-93
2022/07/27 06:48:39;;;;;;;6.72;1.50;;;19.60;99.90;;;;;;7394350;19;20535;-89
2022/07/27 06:51:05;;;;;;;5.50;1.20;;;19.70;99.90;;;;;;7391732;19;20487;-88
2022/07/27 06:53:32;;;;;;;4.93;1.10;;;19.80;99.90;;;;;;7391595;19;20017;-89
2022/07/27 06:56:02;;;;;;;4.35;0.98;;;20.00;99.90;;;;;;7393641;19;20014;-94
2022/07/27 06:58:32;;;;;;;5.15;1.13;;;20.30;99.90;;;;;;7393641;19;20468;-89
2022/07/27 07:01:01;;;;;;;6.40;1.58;;;20.30;99.90;;;;;;7395129;19;20480;-89
2022/07/27 07:03:28;;;;;;;4.07;1.17;;;21.10;99.90;;;;;;7402003;19;20095;-88
2022/07/27 07:05:54;;;;;;;6.43;1.75;;;22.10;99.90;;;;;;7406066;19;20015;-85
2022/07/27 07:08:21;;;;;;;4.07;1.17;;;21.70;99.90;;;;;;7417155;19;20333;-88
2022/07/27 07:10:48;;;;;;;6.55;1.40;;;21.30;99.90;;;;;;7396806;19;20011;-88
2022/07/27 07:13:14;;;;;;;3.20;1.58;;;22.00;99.90;;;;;;7393148;19;20020;-89
2022/07/27 07:15:42;;;;;;;5.70;1.48;;;21.70;99.90;;;;;;7395596;19;20111;-90
2022/07/27 07:18:09;;;;;;;5.85;1.25;;;21.20;99.90;;;;;;7397761;19;20025;-90
2022/07/27 07:20:36;;;;;;;5.70;1.20;;;22.00;99.90;;;;;;7392031;19;20021;-91
2022/07/27 07:23:03;;;;;;;5.20;1.05;;;22.20;99.90;;;;;;7394544;19;20032;-90
2022/07/27 07:25:29;;;;;;;7.07;1.00;;;23.60;99.90;;;;;;7393831;19;20086;-88
2022/07/27 07:27:55;;;;;;;3.30;1.08;;;24.60;99.90;;;;;;7394757;19;20026;-88
2022/07/27 07:30:21;;;;;;;3.97;1.17;;;24.80;99.80;;;;;;7393583;19;20019;-87
2022/07/27 07:32:48;;;;;;;3.80;0.90;;;25.20;98.70;;;;;;7394549;19;20026;-89
2022/07/27 07:35:14;;;;;;;5.40;1.45;;;25.90;99.00;;;;;;7394913;19;20352;-88
2022/07/27 07:37:41;;;;;;;6.20;1.25;;;24.20;95.70;;;;;;7393927;19;20014;-87
2022/07/27 07:40:09;;;;;;;6.10;1.10;;;24.20;96.50;;;;;;7391507;19;20022;-88
2022/07/27 07:42:58;;;;;;;4.68;1.27;;;22.50;97.30;;;;;;7391775;19;20074;-87
2022/07/27 07:45:26;;;;;;;4.45;1.17;;;21.50;99.90;;;;;;7395522;19;20022;-92
2022/07/27 07:47:53;;;;;;;4.78;1.23;;;20.00;99.70;;;;;;7395301;19;20054;-88
2022/07/27 07:50:20;;;;;;;4.18;1.40;;;19.00;99.90;;;;;;7393468;19;20028;-90
2022/07/27 07:52:48;;;;;;;5.93;1.52;;;18.40;99.90;;;;;;7392424;19;20010;-88
2022/07/27 07:55:14;;;;;;;6.32;1.48;;;18.20;99.90;;;;;;7391940;19;20044;-89
2022/07/27 07:57:40;;;;;;;8.07;2.03;;;19.90;99.90;;;;;;7395055;19;20010;-91
2022/07/27 08:00:08;;;;;;;7.93;2.67;;;20.00;99.90;;;;;;7394820;19;20015;-90
2022/07/27 08:02:45;;;;;;;7.25;1.75;;;21.00;99.90;;;;;;7395954;19;20576;-88
2022/07/27 08:05:12;;;;;;;8.50;1.63;;;20.40;99.90;;;;;;7395058;19;20019;-88
2022/07/27 08:07:38;;;;;;;5.30;2.00;;;19.40;99.90;;;;;;7395220;19;20069;-89
2022/07/27 08:10:06;;;;;;;4.68;1.60;;;19.00;99.90;;;;;;7388995;19;20019;-90
2022/07/27 08:12:33;;;;;;;5.70;1.50;;;18.70;99.90;;;;;;7391336;19;20487;-90
2022/07/27 08:14:59;;;;;;;5.18;1.70;;;18.50;99.90;;;;;;7393409;19;20033;-88
2022/07/27 08:17:25;;;;;;;5.43;1.40;;;18.60;99.90;;;;;;7394139;19;20022;-90
2022/07/27 08:19:51;;;;;;;5.53;1.77;;;18.70;99.90;;;;;;7391893;19;20090;-92
2022/07/27 08:22:17;;;;;;;7.35;1.67;;;18.10;99.90;;;;;;7394634;19;20097;-89
2022/07/27 08:24:42;;;;;;;6.97;1.63;;;17.90;99.90;;;;;;7395562;19;20015;-88
2022/07/27 08:27:09;;;;;;;8.82;1.80;;;18.00;99.90;;;;;;7394305;19;20018;-89
2022/07/27 08:29:34;;;;;;;5.13;1.60;;;17.80;99.90;;;;;;7392912;19;20011;-90
2022/07/27 08:32:00;;;;;;;8.80;1.88;;;17.60;99.90;;;;;;7393572;19;20419;-87
2022/07/27 08:34:26;;;;;;;6.72;1.70;;;17.20;99.90;;;;;;7390360;19;20014;-87
2022/07/27 08:36:52;;;;;;;6.90;1.88;;;17.20;99.90;;;;;;7392684;19;20107;-89
2022/07/27 08:39:19;;;;;;;8.85;2.25;;;17.30;99.90;;;;;;7391989;19;20086;-90
2022/07/27 08:41:45;;;;;;;9.45;2.80;;;17.00;99.90;;;;;;7392025;19;20582;-87
2022/07/27 08:44:12;;;;;;;9.98;2.75;;;17.00;99.90;;;;;;7394171;19;20022;-87
2022/07/27 08:46:41;;;;;;;7.22;3.10;;;17.00;99.90;;;;;;7393806;19;20508;-89
2022/07/27 08:49:07;;;;;;;8.15;2.85;;;17.10;99.90;;;;;;7393170;19;20011;-87
2022/07/27 08:51:34;;;;;;;7.68;2.67;;;17.00;99.90;;;;;;7392655;19;20015;-88
2022/07/27 08:54:00;;;;;;;8.88;2.20;;;17.00;99.90;;;;;;7396091;19;20018;-91
2022/07/27 08:56:26;;;;;;;7.53;1.83;;;17.10;99.90;;;;;;7398069;19;20047;-89
2022/07/27 08:58:52;;;;;;;6.22;1.60;;;17.10;99.90;;;;;;7411900;19;20021;-86
2022/07/27 09:01:19;;;;;;;6.97;1.20;;;17.10;99.90;;;;;;7391632;19;20042;-86
2022/07/27 09:03:44;;;;;;;7.93;1.58;;;16.90;99.90;;;;;;7394320;19;20015;-88
2022/07/27 09:06:11;;;;;;;9.93;2.10;;;16.90;99.90;;;;;;7390729;19;20401;-89
2022/07/27 09:08:40;;;;;;;10.05;1.92;;;17.20;99.90;;;;;;7390881;19;20475;-88
2022/07/27 09:11:15;;;;;;;6.18;1.65;;;17.20;99.90;;;;;;7391027;19;20011;-87
2022/07/27 09:13:41;;;;;;;6.40;1.75;;;17.60;99.90;;;;;;7393671;19;20019;-88
2022/07/27 09:16:09;;;;;;;4.18;1.63;;;18.20;99.90;;;;;;7393358;19;20018;-88
2022/07/27 09:18:36;;;;;;;4.93;1.63;;;18.40;99.90;;;;;;7392626;19;20026;-86
2022/07/27 09:21:16;;;;;;;5.25;1.50;;;18.80;99.90;;;;;;7390574;19;20011;-89
2022/07/27 09:24:09;;;;;;;3.55;1.00;;;18.90;99.90;;;;;;7394595;19;20022;-91
2022/07/27 09:26:37;;;;;;;5.50;1.40;;;18.60;98.50;;;;;;7394469;19;20081;-88
2022/07/27 09:29:12;;;;;;;4.90;1.00;;;18.60;99.90;;;;;;7392615;19;20019;-92
2022/07/27 09:31:45;;;;;;;3.25;0.88;;;18.60;98.00;;;;;;7391697;19;20352;-88
2022/07/27 09:34:12;;;;;;;3.33;1.13;;;18.60;98.70;;;;;;7394118;19;20126;-88
2022/07/27 09:36:53;;;;;;;4.70;1.08;;;18.60;99.90;;;;;;7387373;19;20014;-86
2022/07/27 09:39:21;;;;;;;4.80;1.42;;;19.10;99.90;;;;;;7387392;19;20066;-88
2022/07/27 09:41:53;;;;;;;9.60;1.15;;;19.40;99.70;;;;;;7384125;19;20019;-92
2022/07/27 09:44:31;;;;;;;3.78;1.17;;;19.50;98.00;;;;;;7388286;19;20019;-89
2022/07/27 09:46:57;;;;;;;4.07;0.93;;;19.40;97.40;;;;;;7401373;19;20022;-90
2022/07/27 09:49:31;;;;;;;3.92;0.82;;;19.20;97.20;;;;;;7397779;19;20018;-91
2022/07/27 09:51:59;;;;;;;4.85;0.98;;;19.10;96.80;;;;;;7397729;19;20030;-89
2022/07/27 09:54:26;;;;;;;4.43;1.35;;;19.00;98.00;;;;;;7399917;19;20019;-88
2022/07/27 09:57:02;;;;;;;3.28;0.85;;;19.10;98.90;;;;;;7395159;19;20492;-89
2022/07/27 09:59:29;;;;;;;5.72;1.20;;;19.20;97.00;;;;;;7396563;19;20015;-88
2022/07/27 10:01:56;;;;;;;6.47;1.52;;;19.30;97.60;;;;;;7396212;19;20070;-89
2022/07/27 10:04:23;;;;;;;3.55;0.80;;;19.40;98.10;;;;;;7400465;19;20031;-91
2022/07/27 10:06:52;;;;;;;3.53;0.80;;;19.20;97.30;;;;;;7393776;19;20027;-91
2022/07/27 10:09:21;;;;;;;2.53;0.88;;;19.00;97.70;;;;;;7396383;19;20022;-85
2022/07/27 10:11:48;;;;;;;4.78;0.90;;;18.90;98.80;;;;;;7392579;19;20015;-85
2022/07/27 10:14:15;;;;;;;3.33;1.15;;;19.20;99.80;;;;;;7399608;19;20041;-88
2022/07/27 10:16:42;;;;;;;3.92;1.00;;;19.40;99.60;;;;;;7396377;19;20397;-88
2022/07/27 10:19:24;;;;;;;3.70;0.77;;;19.60;97.70;;;;;;7395651;19;20527;-86
2022/07/27 10:21:50;;;;;;;4.80;0.80;;;19.40;97.60;;;;;;7398913;19;20010;-86
2022/07/27 10:24:27;;;;;;;3.17;0.65;;;19.30;97.40;;;;;;7399196;19;20044;-90
2022/07/27 10:26:54;;;;;;;3.03;0.98;;;19.00;98.40;;;;;;7399415;19;20011;-87
2022/07/27 10:29:21;;;;;;;5.95;1.02;;;19.00;99.10;;;;;;7393316;19;20022;-87
2022/07/27 10:31:53;;;;;;;5.32;1.20;;;19.10;99.00;;;;;;7398079;19;20022;-89
2022/07/27 10:34:32;;;;;;;7.20;1.00;;;19.20;98.50;;;;;;7398975;19;20623;-87
2022/07/27 10:37:15;;;;;;;3.40;0.88;;;19.30;98.60;;;;;;7389557;19;20394;-87
2022/07/27 10:40:32;;;;;;;5.32;0.80;;;19.40;98.50;;;;;;7393616;19;20018;-88
2022/07/27 10:42:42;;;;;;;2.95;0.77;;;19.10;98.00;;;;;;7393672;19;20010;-87
2022/07/27 10:45:11;;;;;;;4.50;0.55;;;19.70;98.40;;;;;;7397736;19;20035;-88
2022/07/27 10:47:45;;;;;;;4.03;0.70;;;19.20;96.50;;;;;;7404056;19;20474;-89
2022/07/27 10:50:18;;;;;;;2.35;0.63;;;19.50;96.60;;;;;;7418575;19;20026;-90
2022/07/27 10:53:04;;;;;;;;;;;19.30;96.70;;;;;;7396685;19;20021;-87
2022/07/27 10:55:30;;;;;;;4.10;0.90;;;19.60;97.90;;;;;;7389881;19;19927;-88
2022/07/27 10:57:56;;;;;;;5.70;1.27;;;20.00;97.60;;;;;;7399042;19;20100;-88
2022/07/27 11:00:50;;;;;;;2.90;1.00;;;20.20;97.70;;;;;;7395920;19;20038;-89
2022/07/27 11:03:35;;;;;;;3.53;0.82;;;19.90;96.10;;;;;;7399090;19;20010;-87
2022/07/27 11:06:20;;;;;;;3.92;0.70;;;20.10;97.40;;;;;;7389190;19;20076;-87
2022/07/27 11:08:47;;;;;;;4.75;0.80;;;20.00;97.10;;;;;;7399760;19;20014;-89
2022/07/27 11:11:19;;;;;;;4.18;0.90;;;19.90;96.80;;;;;;7377925;19;20093;-88
2022/07/27 11:13:48;;;;;;;4.38;1.05;;;19.30;97.80;;;;;;7391305;19;20010;-89
2022/07/27 11:16:15;;;;;;;4.60;1.13;;;19.30;98.10;;;;;;7393835;19;20467;-89
2022/07/27 11:18:42;;;;;;;4.72;1.00;;;19.60;97.90;;;;;;7398167;19;20015;-88
2022/07/27 11:21:16;;;;;;;6.15;1.00;;;19.60;97.80;;;;;;7392474;19;20355;-89
2022/07/27 11:23:43;;;;;;;4.35;1.05;;;19.60;98.30;;;;;;7392109;19;20018;-87
2022/07/27 11:26:09;;;;;;;6.15;0.90;;;19.70;98.40;;;;;;7392438;19;20018;-93
2022/07/27 11:28:36;;;;;;;3.17;0.75;;;19.70;97.20;;;;;;7393249;19;20019;-88
2022/07/27 11:31:03;;;;;;;4.43;0.88;;;19.80;96.90;;;;;;7395910;19;20018;-88
2022/07/27 11:33:30;;;;;;;3.92;0.90;;;19.90;97.10;;;;;;7383146;19;20032;-90
2022/07/27 11:36:03;;;;;;;4.80;0.93;;;19.70;97.80;;;;;;7392299;19;20011;-89
2022/07/27 11:38:29;;;;;;;2.70;0.80;;;19.70;97.90;;;;;;7396235;19;20384;-87
2022/07/27 11:40:55;;;;;;;5.00;1.23;;;19.90;97.70;;;;;;7367780;19;20010;-88
2022/07/27 11:43:39;;;;;;;3.05;0.70;;;20.30;96.70;;;;;;7392926;19;20017;-89
2022/07/27 11:46:17;;;;;;;2.05;0.88;;;20.00;97.60;;;;;;7389900;19;20026;-88
2022/07/27 11:48:53;;;;;;;3.25;0.80;;;20.40;97.90;;;;;;7394669;19;20114;-88
2022/07/27 11:51:19;;;;;;;6.72;1.25;;;20.30;97.60;;;;;;7393656;19;20408;-89
2022/07/27 11:53:46;;;;;;;5.38;0.80;;;20.40;97.30;;;;;;7395604;19;20514;-88
2022/07/27 11:56:11;;;;;;;5.82;1.00;;;20.30;96.70;;;;;;7391987;19;20351;-92
2022/07/27 11:59:01;;;;;;;4.00;0.82;;;20.30;97.40;;;;;;7390988;19;20018;-87
2022/07/27 12:01:29;;;;;;;6.15;1.40;;;19.70;98.40;;;;;;7392315;19;20492;-88
2022/07/27 12:04:05;;;;;;;5.72;1.70;;;19.60;99.50;;;;;;7396698;19;20023;-87
2022/07/27 12:06:33;;;;;;;4.90;1.38;;;19.50;99.90;;;;;;7392402;19;20087;-89
2022/07/27 12:09:03;;;;;;;7.85;1.88;;;19.10;99.90;;;;;;7393708;19;20037;-90
2022/07/27 12:11:43;;;;;;;6.25;1.80;;;18.70;99.90;;;;;;7395405;19;20018;-89
2022/07/27 12:14:13;;;;;;;5.82;1.60;;;18.60;99.90;;;;;;7394182;19;20014;-90
2022/07/27 12:16:39;;;;;;;6.22;1.52;;;18.50;99.90;;;;;;7395267;19;20490;-88
2022/07/27 12:19:07;;;;;;;5.50;1.80;;;18.50;99.90;;;;;;7392252;19;20082;-93
2022/07/27 12:21:33;;;;;;;9.55;1.60;;;18.60;99.90;;;;;;7395419;19;20044;-88
2022/07/27 12:23:59;;;;;;;8.07;1.70;;;18.40;99.90;;;;;;7397494;19;20488;-91
2022/07/27 12:26:25;;;;;;;6.55;1.60;;;18.40;99.90;;;;;;7398545;19;20395;-89
2022/07/27 12:29:09;;;;;;;5.70;1.45;;;18.50;99.90;;;;;;7405515;19;20006;-90
2022/07/27 12:31:36;;;;;;;7.35;1.70;;;18.70;99.90;;;;;;7412072;19;20002;-90
2022/07/27 12:34:05;;;;;;;3.90;1.40;;;19.00;99.90;;;;;;7412594;19;20015;-87
2022/07/27 12:36:32;;;;;;;7.35;1.90;;;19.30;99.90;;;;;;7394127;19;20484;-89
2022/07/27 12:38:58;;;;;;;6.40;1.80;;;19.20;99.70;;;;;;7392271;19;20439;-91
2022/07/27 12:41:28;;;;;;;4.78;1.70;;;19.20;99.80;;;;;;7393428;19;20010;-90
2022/07/27 12:44:08;;;;;;;5.03;1.73;;;19.20;99.80;;;;;;7394271;19;20082;-87
2022/07/27 12:46:54;;;;;;;3.80;1.60;;;19.70;99.30;;;;;;7395655;19;20014;-90
2022/07/27 12:49:24;;;;;;;3.65;1.30;;;20.10;98.70;;;;;;7393281;19;20014;-88
2022/07/27 12:51:50;;;;;;;3.75;1.38;;;20.20;97.50;;;;;;7393323;19;20021;-88